Time;durP1;ratioP1;P1;durP2;ratioP2;P2;SDS_P1;SDS_P2;PMS_P1;PMS_P2;Temp;Humidity;BMP_temperature;BMP_pressure;BME280_temperature;BME280_humidity;BME280_pressure;Samples;Min_cycle;Max_cycle;Signal;HPM_P1;HPM_P2
2024/01/02 00:00:27;;;;;;;3.73;1.77;;;10.60;93.50;;;;;;958993;148;27299;-80
2024/01/02 00:02:53;;;;;;;5.20;2.07;;;10.60;93.50;;;;;;957120;148;27253;-80
2024/01/02 00:05:20;;;;;;;4.90;1.40;;;10.60;93.60;;;;;;956729;148;27442;-81
2024/01/02 00:07:46;;;;;;;2.83;1.90;;;10.60;93.70;;;;;;956681;148;27321;-81
2024/01/02 00:10:13;;;;;;;3.73;1.80;;;10.60;93.80;;;;;;959300;148;27411;-79
2024/01/02 00:12:39;;;;;;;3.40;1.57;;;10.60;93.70;;;;;;957683;148;27608;-79
2024/01/02 00:15:07;;;;;;;3.40;1.50;;;10.60;93.80;;;;;;957564;148;27370;-79
2024/01/02 00:17:33;;;;;;;5.47;1.90;;;10.60;93.80;;;;;;956353;147;27430;-78
2024/01/02 00:19:59;;;;;;;2.67;1.50;;;10.60;93.80;;;;;;956913;148;27367;-79
2024/01/02 00:22:26;;;;;;;3.33;1.73;;;10.60;93.80;;;;;;958855;148;27282;-79
2024/01/02 00:24:53;;;;;;;2.27;1.60;;;10.60;93.90;;;;;;954837;148;27354;-81
2024/01/02 00:27:19;;;;;;;4.77;1.93;;;10.60;94.00;;;;;;955779;148;27657;-81
2024/01/02 00:29:46;;;;;;;3.97;1.70;;;10.60;94.00;;;;;;956093;148;27326;-80
2024/01/02 00:32:12;;;;;;;4.73;1.60;;;10.60;94.00;;;;;;958195;148;27316;-80
2024/01/02 00:34:39;;;;;;;2.80;1.77;;;10.60;94.00;;;;;;960162;148;27248;-80
2024/01/02 00:37:06;;;;;;;3.00;1.70;;;10.60;93.90;;;;;;959133;148;27260;-80
2024/01/02 00:39:32;;;;;;;2.93;1.53;;;10.60;93.90;;;;;;957176;148;27331;-80
2024/01/02 00:41:59;;;;;;;2.53;1.60;;;10.60;93.90;;;;;;956954;148;27322;-80
2024/01/02 00:44:25;;;;;;;5.23;1.80;;;10.70;93.90;;;;;;958665;148;27276;-80
2024/01/02 00:46:52;;;;;;;3.63;1.70;;;10.70;94.00;;;;;;957496;147;27330;-79
2024/01/02 00:49:18;;;;;;;2.67;1.50;;;10.70;94.10;;;;;;956420;146;27410;-84
2024/01/02 00:51:45;;;;;;;2.93;1.47;;;10.70;94.10;;;;;;958413;148;27437;-79
2024/01/02 00:54:12;;;;;;;1.83;1.40;;;10.70;94.10;;;;;;959277;148;27374;-82
2024/01/02 00:56:38;;;;;;;3.47;1.77;;;10.80;94.10;;;;;;957919;148;27264;-82
2024/01/02 00:59:05;;;;;;;3.70;1.50;;;10.80;94.10;;;;;;968227;147;27387;-83
2024/01/02 01:01:31;;;;;;;1.77;1.20;;;10.70;94.10;;;;;;970232;147;27422;-84
2024/01/02 01:03:58;;;;;;;2.47;1.67;;;10.80;94.00;;;;;;969276;147;27403;-84
2024/01/02 01:06:25;;;;;;;3.93;1.70;;;10.80;94.10;;;;;;969545;147;27305;-86
2024/01/02 01:08:51;;;;;;;3.53;1.67;;;10.70;94.10;;;;;;969247;147;27295;-80
2024/01/02 01:11:20;;;;;;;2.17;1.60;;;10.70;94.10;;;;;;969510;146;27343;-81
2024/01/02 01:13:45;;;;;;;2.57;1.50;;;10.70;94.20;;;;;;969717;147;27334;-80
2024/01/02 01:16:11;;;;;;;3.23;1.60;;;10.70;94.30;;;;;;969922;148;27263;-80
2024/01/02 01:18:37;;;;;;;2.80;1.60;;;10.70;94.40;;;;;;969749;147;27231;-80
2024/01/02 01:21:04;;;;;;;4.00;1.47;;;10.70;94.40;;;;;;969773;146;27216;-79
2024/01/02 01:23:31;;;;;;;2.80;1.87;;;10.70;94.50;;;;;;969805;147;27333;-80
2024/01/02 01:25:57;;;;;;;4.67;1.80;;;10.70;94.60;;;;;;969861;147;27289;-80
2024/01/02 01:28:24;;;;;;;4.73;1.70;;;10.70;94.80;;;;;;969776;147;27292;-80
2024/01/02 01:30:50;;;;;;;4.17;1.67;;;10.60;94.80;;;;;;969103;147;27310;-81
2024/01/02 01:33:17;;;;;;;3.93;1.70;;;10.60;94.90;;;;;;969768;147;27423;-81
2024/01/02 01:35:44;;;;;;;2.03;1.50;;;10.60;95.00;;;;;;968365;148;27337;-80
2024/01/02 01:38:10;;;;;;;3.17;1.27;;;10.60;95.20;;;;;;969826;147;27264;-79
2024/01/02 01:40:37;;;;;;;2.60;1.47;;;10.60;95.40;;;;;;969602;146;27363;-80
2024/01/02 01:43:03;;;;;;;2.70;1.20;;;10.60;95.50;;;;;;969391;147;27357;-80
2024/01/02 01:45:30;;;;;;;1.27;1.10;;;10.60;95.60;;;;;;968299;147;27320;-79
2024/01/02 01:47:58;;;;;;;2.30;1.40;;;10.50;95.60;;;;;;969800;147;27369;-81
2024/01/02 01:50:24;;;;;;;1.73;1.40;;;10.50;95.80;;;;;;969705;146;27291;-80
2024/01/02 01:52:50;;;;;;;1.23;1.13;;;10.50;96.00;;;;;;969714;146;27271;-81
2024/01/02 01:55:16;;;;;;;1.57;1.20;;;10.50;96.10;;;;;;969952;148;27414;-81
2024/01/02 01:57:43;;;;;;;2.00;1.30;;;10.50;96.40;;;;;;970619;147;28520;-80
2024/01/02 02:00:10;;;;;;;2.47;1.20;;;10.40;96.50;;;;;;974338;147;27265;-80
2024/01/02 02:02:36;;;;;;;1.63;1.10;;;10.40;96.70;;;;;;975516;146;27355;-80
2024/01/02 02:05:03;;;;;;;1.50;1.40;;;10.40;96.80;;;;;;975081;146;27439;-80
2024/01/02 02:07:29;;;;;;;3.43;1.60;;;10.40;96.90;;;;;;974300;147;27813;-80
2024/01/02 02:09:56;;;;;;;1.93;1.37;;;10.30;97.20;;;;;;974669;146;27281;-84
2024/01/02 02:12:23;;;;;;;1.93;1.30;;;10.30;97.30;;;;;;974202;145;27315;-84
2024/01/02 02:14:49;;;;;;;2.37;1.23;;;10.30;97.40;;;;;;974775;146;27362;-84
2024/01/02 02:17:22;;;;;;;2.53;1.30;;;10.30;97.60;;;;;;973834;146;27333;-81
2024/01/02 02:19:45;;;;;;;1.30;0.90;;;10.30;97.80;;;;;;973805;145;27849;-78
2024/01/02 02:22:12;;;;;;;1.27;1.17;;;10.30;97.90;;;;;;975069;145;27338;-80
2024/01/02 02:24:38;;;;;;;6.17;1.30;;;10.30;97.90;;;;;;974798;145;27222;-79
2024/01/02 02:27:05;;;;;;;5.17;1.50;;;10.20;98.00;;;;;;975054;146;27317;-82
2024/01/02 02:29:32;;;;;;;1.80;1.60;;;10.20;98.20;;;;;;974990;145;27314;-79
2024/01/02 02:31:58;;;;;;;1.27;1.17;;;10.20;98.30;;;;;;974267;145;27250;-79
2024/01/02 02:34:25;;;;;;;1.27;0.93;;;10.20;98.50;;;;;;974952;146;27242;-79
2024/01/02 02:36:51;;;;;;;1.70;1.03;;;10.20;98.70;;;;;;974550;145;27282;-81
2024/01/02 02:39:18;;;;;;;2.47;1.50;;;10.10;98.80;;;;;;974246;146;27434;-80
2024/01/02 02:41:44;;;;;;;2.27;1.40;;;10.10;99.00;;;;;;974391;146;27266;-81
2024/01/02 02:44:11;;;;;;;1.23;1.13;;;10.10;99.10;;;;;;974092;145;27339;-77
2024/01/02 02:46:38;;;;;;;2.43;1.27;;;10.10;99.20;;;;;;974739;146;27405;-79
2024/01/02 02:49:04;;;;;;;1.60;1.23;;;10.10;99.40;;;;;;974789;146;27437;-77
2024/01/02 02:51:31;;;;;;;0.80;0.80;;;10.00;99.60;;;;;;975218;147;27421;-78
2024/01/02 02:53:57;;;;;;;1.13;1.00;;;10.00;99.70;;;;;;974430;146;27318;-80
2024/01/02 02:56:24;;;;;;;3.30;1.23;;;10.00;99.80;;;;;;975220;145;27282;-78
2024/01/02 02:58:51;;;;;;;2.93;1.27;;;10.00;99.90;;;;;;969749;146;27380;-77
2024/01/02 03:01:20;;;;;;;1.57;1.10;;;10.00;99.90;;;;;;958791;148;27355;-76
2024/01/02 03:03:47;;;;;;;3.20;1.30;;;10.00;99.90;;;;;;957586;148;27405;-79
2024/01/02 03:06:13;;;;;;;1.27;1.00;;;10.00;99.90;;;;;;957562;148;27264;-81
2024/01/02 03:08:40;;;;;;;3.00;1.20;;;10.00;99.90;;;;;;960448;148;27390;-79
2024/01/02 03:11:06;;;;;;;1.20;1.07;;;9.90;99.90;;;;;;959513;148;27421;-80
2024/01/02 03:13:33;;;;;;;1.90;1.27;;;9.90;99.90;;;;;;958905;147;27433;-79
2024/01/02 03:16:00;;;;;;;1.57;1.13;;;9.90;99.90;;;;;;958606;148;27295;-81
2024/01/02 03:18:26;;;;;;;1.73;0.80;;;9.90;99.90;;;;;;957612;148;27322;-82
2024/01/02 03:20:53;;;;;;;1.10;1.10;;;9.90;99.90;;;;;;957439;148;27388;-83
2024/01/02 03:23:19;;;;;;;2.20;1.10;;;9.90;99.90;;;;;;957564;148;27383;-85
2024/01/02 03:25:46;;;;;;;1.10;0.70;;;9.90;99.90;;;;;;956838;148;27290;-83
2024/01/02 03:28:13;;;;;;;3.03;0.80;;;9.90;99.90;;;;;;960378;148;27380;-84
2024/01/02 03:30:40;;;;;;;1.20;0.83;;;9.90;99.90;;;;;;958941;148;27427;-81
2024/01/02 03:33:06;;;;;;;0.90;0.80;;;9.80;99.90;;;;;;958088;148;27427;-80
2024/01/02 03:35:32;;;;;;;2.13;1.17;;;9.80;99.90;;;;;;960133;148;27279;-80
2024/01/02 03:37:59;;;;;;;2.23;1.00;;;9.80;99.90;;;;;;959944;148;27262;-80
2024/01/02 03:40:25;;;;;;;2.53;1.10;;;9.80;99.90;;;;;;957661;148;27419;-80
2024/01/02 03:42:52;;;;;;;0.90;0.80;;;9.80;99.90;;;;;;957455;148;27347;-83
2024/01/02 03:45:19;;;;;;;2.93;1.00;;;9.80;99.90;;;;;;956907;148;27353;-81
2024/01/02 03:47:45;;;;;;;1.37;0.63;;;9.80;99.90;;;;;;958302;148;27338;-82
2024/01/02 03:50:12;;;;;;;1.10;1.00;;;9.80;99.90;;;;;;956143;148;27308;-82
2024/01/02 03:52:38;;;;;;;1.03;0.80;;;9.80;99.90;;;;;;958882;148;27445;-81
2024/01/02 03:55:05;;;;;;;2.07;0.90;;;9.80;99.90;;;;;;958433;147;27448;-81
2024/01/02 03:57:34;;;;;;;1.53;1.00;;;9.80;99.90;;;;;;957434;148;27259;-82
2024/01/02 03:59:58;;;;;;;0.80;0.80;;;9.80;99.90;;;;;;958029;148;27362;-81
2024/01/02 04:02:25;;;;;;;1.13;0.80;;;9.80;99.90;;;;;;956899;148;27362;-81
2024/01/02 04:04:51;;;;;;;0.63;0.57;;;9.80;99.90;;;;;;957682;148;27969;-81
2024/01/02 04:07:18;;;;;;;1.03;0.93;;;9.80;99.90;;;;;;957995;148;27299;-81
2024/01/02 04:09:44;;;;;;;1.10;0.80;;;9.80;99.90;;;;;;958012;148;27339;-81
2024/01/02 04:12:11;;;;;;;0.77;0.67;;;9.80;99.90;;;;;;960107;148;27315;-81
2024/01/02 04:14:38;;;;;;;0.80;0.80;;;9.80;99.90;;;;;;960408;148;27327;-81
2024/01/02 04:17:04;;;;;;;0.70;0.70;;;9.80;99.90;;;;;;957962;148;27315;-81
2024/01/02 04:19:31;;;;;;;0.70;0.70;;;9.80;99.90;;;;;;958522;148;27384;-82
2024/01/02 04:21:57;;;;;;;1.47;0.80;;;9.80;99.90;;;;;;958565;148;27255;-82
2024/01/02 04:24:24;;;;;;;0.50;0.50;;;9.80;99.90;;;;;;958224;148;27493;-82
2024/01/02 04:26:50;;;;;;;0.40;0.40;;;9.80;99.90;;;;;;958619;148;27311;-82
2024/01/02 04:29:17;;;;;;;0.60;0.60;;;9.80;99.90;;;;;;957365;148;27235;-82
2024/01/02 04:31:44;;;;;;;0.70;0.60;;;9.80;99.90;;;;;;958593;148;27341;-80
2024/01/02 04:34:10;;;;;;;0.40;0.40;;;9.70;99.90;;;;;;958379;148;27343;-78
2024/01/02 04:36:37;;;;;;;0.50;0.50;;;9.80;99.90;;;;;;956846;148;27311;-78
2024/01/02 04:39:03;;;;;;;0.57;0.57;;;9.80;99.90;;;;;;957437;148;27354;-79
2024/01/02 04:41:30;;;;;;;0.50;0.50;;;9.80;99.90;;;;;;957602;147;27227;-79
2024/01/02 04:43:57;;;;;;;0.50;0.50;;;9.70;99.90;;;;;;956485;148;27352;-81
2024/01/02 04:46:23;;;;;;;0.60;0.60;;;9.80;99.90;;;;;;957421;148;27330;-79
2024/01/02 04:48:50;;;;;;;0.50;0.50;;;9.80;99.90;;;;;;959158;148;27222;-79
2024/01/02 04:51:16;;;;;;;0.40;0.40;;;9.80;99.90;;;;;;955995;148;27348;-79
2024/01/02 04:53:43;;;;;;;0.23;0.23;;;9.80;99.90;;;;;;957691;148;27315;-79
2024/01/02 04:56:09;;;;;;;0.87;0.53;;;9.80;99.90;;;;;;960566;147;27354;-79
2024/01/02 04:58:36;;;;;;;0.50;0.50;;;9.80;99.90;;;;;;959324;148;28446;-78
2024/01/02 05:01:03;;;;;;;0.60;0.60;;;9.70;99.90;;;;;;956755;148;27345;-78
2024/01/02 05:03:29;;;;;;;0.57;0.57;;;9.80;99.90;;;;;;958005;148;27399;-80
2024/01/02 05:05:56;;;;;;;0.60;0.60;;;9.80;99.90;;;;;;957632;147;27339;-79
2024/01/02 05:08:22;;;;;;;0.60;0.60;;;9.80;99.90;;;;;;957730;148;27383;-80
2024/01/02 05:10:49;;;;;;;0.73;0.50;;;9.80;99.90;;;;;;957480;148;27332;-79
2024/01/02 05:13:16;;;;;;;0.50;0.50;;;9.80;99.90;;;;;;956831;148;27241;-79
2024/01/02 05:15:42;;;;;;;0.67;0.63;;;9.80;99.90;;;;;;955579;148;27885;-82
2024/01/02 05:18:09;;;;;;;0.50;0.47;;;9.80;99.90;;;;;;956526;148;27355;-80
2024/01/02 05:20:35;;;;;;;0.43;0.43;;;9.80;99.90;;;;;;958196;148;27279;-79
2024/01/02 05:23:03;;;;;;;0.40;0.40;;;9.80;99.90;;;;;;957709;148;27428;-79
2024/01/02 05:25:28;;;;;;;0.50;0.50;;;9.80;99.90;;;;;;957934;148;27284;-80
2024/01/02 05:27:55;;;;;;;1.00;0.67;;;9.80;99.90;;;;;;957239;148;27333;-78
2024/01/02 05:30:22;;;;;;;0.67;0.67;;;9.80;99.90;;;;;;959162;148;27594;-79
2024/01/02 05:32:48;;;;;;;1.20;0.60;;;9.80;99.90;;;;;;956527;148;27283;-79
2024/01/02 05:35:15;;;;;;;1.47;0.77;;;9.90;99.90;;;;;;957545;148;27351;-79
2024/01/02 05:37:41;;;;;;;0.30;0.30;;;9.90;99.90;;;;;;959062;148;27307;-79
2024/01/02 05:40:09;;;;;;;0.50;0.50;;;9.90;99.90;;;;;;956343;148;27339;-78
2024/01/02 05:42:35;;;;;;;0.80;0.33;;;9.90;99.90;;;;;;958285;148;27305;-83
2024/01/02 05:45:01;;;;;;;0.30;0.30;;;9.90;99.90;;;;;;955880;148;27344;-81
2024/01/02 05:47:28;;;;;;;0.70;0.70;;;10.00;99.90;;;;;;958628;148;27271;-80
2024/01/02 05:49:54;;;;;;;0.40;0.40;;;10.00;99.90;;;;;;955687;148;27399;-81
2024/01/02 05:52:21;;;;;;;1.40;0.90;;;10.00;99.90;;;;;;957200;148;27392;-79
2024/01/02 05:54:48;;;;;;;0.57;0.57;;;10.00;99.90;;;;;;956717;148;27387;-79
2024/01/02 05:57:14;;;;;;;0.50;0.50;;;10.10;99.90;;;;;;957049;148;27280;-80
2024/01/02 05:59:41;;;;;;;1.70;0.70;;;10.10;99.90;;;;;;958443;148;27386;-82
2024/01/02 06:02:07;;;;;;;0.50;0.50;;;10.10;99.90;;;;;;968410;148;27342;-79
2024/01/02 06:04:34;;;;;;;0.47;0.47;;;10.10;99.90;;;;;;969234;147;27271;-79
2024/01/02 06:07:00;;;;;;;0.50;0.50;;;10.10;99.90;;;;;;969892;147;27312;-80
2024/01/02 06:09:27;;;;;;;0.40;0.40;;;10.10;99.90;;;;;;970035;147;27318;-82
2024/01/02 06:11:54;;;;;;;0.60;0.60;;;10.10;99.90;;;;;;969569;147;27405;-79
2024/01/02 06:14:20;;;;;;;0.80;0.40;;;10.10;99.90;;;;;;969639;148;27312;-79
2024/01/02 06:16:47;;;;;;;0.87;0.40;;;10.20;99.90;;;;;;969075;146;27287;-82
2024/01/02 06:19:17;;;;;;;1.10;0.50;;;10.20;99.90;;;;;;969304;147;27282;-79
2024/01/02 06:21:40;;;;;;;0.60;0.40;;;10.20;99.90;;;;;;969545;147;27321;-82
2024/01/02 06:24:07;;;;;;;0.67;0.50;;;10.20;99.90;;;;;;969554;147;27244;-78
2024/01/02 06:26:33;;;;;;;0.50;0.50;;;10.20;99.90;;;;;;970175;148;27275;-79
2024/01/02 06:29:00;;;;;;;1.00;0.80;;;10.20;99.90;;;;;;969851;146;27297;-79
2024/01/02 06:31:26;;;;;;;0.50;0.50;;;10.20;99.90;;;;;;970306;148;27424;-79
2024/01/02 06:33:53;;;;;;;0.43;0.43;;;10.30;99.90;;;;;;969356;148;27324;-79
2024/01/02 06:36:20;;;;;;;0.40;0.40;;;10.30;99.90;;;;;;969342;147;27266;-80
2024/01/02 06:38:46;;;;;;;0.50;0.50;;;10.30;99.90;;;;;;969226;147;27294;-79
2024/01/02 06:41:13;;;;;;;0.50;0.50;;;10.30;99.90;;;;;;969410;147;27420;-82
2024/01/02 06:43:39;;;;;;;0.50;0.47;;;10.30;99.90;;;;;;969731;147;27914;-79
2024/01/02 06:46:06;;;;;;;0.43;0.43;;;10.30;99.90;;;;;;968667;147;27286;-80
2024/01/02 06:48:32;;;;;;;0.63;0.30;;;10.30;99.90;;;;;;968886;148;27308;-80
2024/01/02 06:50:59;;;;;;;0.50;0.50;;;10.40;99.90;;;;;;969128;147;27270;-79
2024/01/02 06:53:26;;;;;;;0.63;0.63;;;10.40;99.90;;;;;;969846;146;27329;-81
2024/01/02 06:55:52;;;;;;;0.30;0.30;;;10.40;99.90;;;;;;968637;146;27329;-80
2024/01/02 06:58:19;;;;;;;1.33;0.57;;;10.40;99.90;;;;;;968704;148;27263;-80
2024/01/02 07:00:46;;;;;;;0.90;0.90;;;10.40;99.90;;;;;;969783;146;27709;-81
2024/01/02 07:03:12;;;;;;;1.27;0.47;;;10.40;99.90;;;;;;969161;147;27368;-80
2024/01/02 07:05:39;;;;;;;0.70;0.60;;;10.40;99.90;;;;;;970263;147;27334;-79
2024/01/02 07:08:05;;;;;;;0.50;0.50;;;10.50;99.90;;;;;;968931;147;27310;-78
2024/01/02 07:10:32;;;;;;;0.40;0.40;;;10.50;99.90;;;;;;970353;147;27382;-79
2024/01/02 07:12:58;;;;;;;0.30;0.30;;;10.50;99.90;;;;;;969494;147;27294;-78
2024/01/02 07:15:25;;;;;;;0.40;0.40;;;10.50;99.90;;;;;;969966;147;27321;-78
2024/01/02 07:17:51;;;;;;;0.53;0.53;;;10.50;99.90;;;;;;968982;148;27410;-79
2024/01/02 07:20:20;;;;;;;0.73;0.50;;;10.50;99.90;;;;;;969591;148;27278;-79
2024/01/02 07:22:45;;;;;;;0.60;0.60;;;10.60;99.90;;;;;;968988;147;27255;-79
2024/01/02 07:25:12;;;;;;;0.30;0.30;;;10.60;99.90;;;;;;968774;147;27367;-80
2024/01/02 07:27:38;;;;;;;0.60;0.60;;;10.60;99.90;;;;;;969098;147;27387;-79
2024/01/02 07:30:04;;;;;;;0.47;0.47;;;10.60;99.90;;;;;;969207;147;27363;-80
2024/01/02 07:32:31;;;;;;;1.27;0.77;;;10.60;99.90;;;;;;969876;146;27255;-77
2024/01/02 07:34:58;;;;;;;0.40;0.40;;;10.70;99.90;;;;;;969712;147;27255;-80
2024/01/02 07:37:24;;;;;;;0.47;0.47;;;10.70;99.90;;;;;;975021;145;27336;-82
2024/01/02 07:39:53;;;;;;;0.60;0.60;;;10.70;99.90;;;;;;974818;145;27446;-77
2024/01/02 07:42:17;;;;;;;0.77;0.77;;;10.70;99.90;;;;;;974437;145;27242;-77
2024/01/02 07:44:44;;;;;;;0.50;0.50;;;10.80;99.90;;;;;;974898;145;27745;-78
2024/01/02 07:47:11;;;;;;;0.67;0.60;;;10.80;99.90;;;;;;969828;146;27290;-81
2024/01/02 07:49:38;;;;;;;0.50;0.50;;;10.80;99.90;;;;;;974333;145;27322;-77
2024/01/02 07:52:04;;;;;;;0.50;0.50;;;10.90;99.90;;;;;;974843;145;27234;-76
2024/01/02 07:54:30;;;;;;;0.57;0.50;;;10.90;99.90;;;;;;974607;146;27405;-77
2024/01/02 07:56:57;;;;;;;0.50;0.50;;;10.90;99.90;;;;;;969459;146;27278;-80
2024/01/02 07:59:25;;;;;;;0.47;0.47;;;11.00;99.90;;;;;;969319;147;27330;-77
2024/01/02 08:01:50;;;;;;;0.50;0.50;;;11.10;99.90;;;;;;967878;146;27318;-83
2024/01/02 08:04:17;;;;;;;0.30;0.30;;;11.10;99.90;;;;;;969755;148;27283;-81
2024/01/02 08:06:43;;;;;;;0.73;0.70;;;11.20;99.90;;;;;;969182;146;27332;-81
2024/01/02 08:09:10;;;;;;;0.50;0.50;;;11.20;99.90;;;;;;968946;146;27835;-79
2024/01/02 08:11:37;;;;;;;0.50;0.50;;;11.30;99.90;;;;;;969711;148;27311;-79
2024/01/02 08:14:03;;;;;;;0.60;0.60;;;11.30;99.90;;;;;;969492;147;27272;-79
2024/01/02 08:16:30;;;;;;;0.40;0.40;;;11.40;99.90;;;;;;970011;147;27235;-79
2024/01/02 08:18:56;;;;;;;1.80;0.50;;;11.40;99.90;;;;;;969872;147;27329;-80
2024/01/02 08:21:23;;;;;;;0.50;0.50;;;11.50;99.90;;;;;;969743;147;27353;-81
2024/01/02 08:23:49;;;;;;;0.40;0.40;;;11.50;99.90;;;;;;969215;146;27309;-81
2024/01/02 08:26:16;;;;;;;0.37;0.37;;;11.60;99.90;;;;;;969217;147;27755;-81
2024/01/02 08:28:43;;;;;;;0.65;0.65;;;11.60;99.90;;;;;;969570;146;27419;-81
2024/01/02 08:31:09;;;;;;;0.83;0.83;;;11.70;99.90;;;;;;969584;147;27390;-81
2024/01/02 08:33:36;;;;;;;0.60;0.60;;;11.70;99.90;;;;;;969286;146;27236;-80
2024/01/02 08:36:02;;;;;;;1.20;1.10;;;11.70;99.90;;;;;;969117;146;27851;-81
2024/01/02 08:38:29;;;;;;;1.27;1.17;;;11.80;99.90;;;;;;969777;148;27408;-81
2024/01/02 08:40:55;;;;;;;0.95;0.93;;;11.80;99.90;;;;;;969116;147;27338;-81
2024/01/02 08:43:22;;;;;;;1.83;1.13;;;11.80;99.90;;;;;;969587;146;27316;-81
2024/01/02 08:45:49;;;;;;;1.10;0.90;;;11.90;99.90;;;;;;969027;147;27293;-81
2024/01/02 08:48:15;;;;;;;0.87;0.80;;;11.90;99.90;;;;;;968146;147;27267;-81
2024/01/02 08:50:43;;;;;;;0.70;0.70;;;11.90;99.90;;;;;;969377;148;27347;-80
2024/01/02 08:53:08;;;;;;;0.78;0.78;;;12.00;99.90;;;;;;969558;146;27418;-81
2024/01/02 08:55:35;;;;;;;0.53;0.53;;;12.00;99.90;;;;;;969152;148;27270;-80
2024/01/02 08:58:03;;;;;;;0.47;0.47;;;12.00;99.90;;;;;;968527;147;27323;-81
2024/01/02 09:00:28;;;;;;;0.50;0.50;;;12.10;99.90;;;;;;969997;146;27262;-81
2024/01/02 09:02:55;;;;;;;0.40;0.40;;;12.10;99.90;;;;;;964922;147;27389;-83
2024/01/02 09:05:22;;;;;;;0.30;0.30;;;12.10;99.90;;;;;;959153;147;27406;-83
2024/01/02 09:07:48;;;;;;;0.40;0.40;;;12.10;99.90;;;;;;958434;147;27340;-82
2024/01/02 09:10:15;;;;;;;0.53;0.53;;;12.20;99.90;;;;;;958336;148;27384;-81
2024/01/02 09:12:41;;;;;;;0.30;0.30;;;12.20;99.90;;;;;;957543;148;27399;-79
2024/01/02 09:15:08;;;;;;;0.47;0.47;;;12.20;99.90;;;;;;955915;148;27450;-77
2024/01/02 09:17:34;;;;;;;0.75;0.40;;;12.20;99.90;;;;;;959607;148;27336;-77
2024/01/02 09:20:01;;;;;;;0.50;0.50;;;12.20;99.90;;;;;;955859;148;27445;-77
2024/01/02 09:22:29;;;;;;;0.30;0.30;;;12.30;99.90;;;;;;959821;148;27420;-81
2024/01/02 09:24:55;;;;;;;0.90;0.90;;;12.30;99.90;;;;;;957153;148;27406;-79
2024/01/02 09:27:22;;;;;;;1.57;0.50;;;12.30;99.90;;;;;;959914;148;27314;-81
2024/01/02 09:29:48;;;;;;;0.30;0.30;;;12.40;99.90;;;;;;956378;148;27395;-79
2024/01/02 09:32:18;;;;;;;1.40;0.50;;;12.40;99.90;;;;;;959077;147;27363;-79
2024/01/02 09:34:45;;;;;;;1.70;0.50;;;12.40;99.90;;;;;;956447;146;27303;-80
2024/01/02 09:37:11;;;;;;;0.40;0.40;;;12.40;99.90;;;;;;959128;148;27400;-80
2024/01/02 09:39:38;;;;;;;0.20;0.20;;;12.50;99.90;;;;;;957920;148;27334;-79
2024/01/02 09:42:10;;;;;;;0.68;0.57;;;12.50;99.90;;;;;;957613;148;27244;-79
2024/01/02 09:45:04;;;;;;;0.53;0.40;;;12.50;99.90;;;;;;956764;148;27315;-78
2024/01/02 09:47:52;;;;;;;0.40;0.40;;;12.60;99.90;;;;;;959828;147;27410;-80
2024/01/02 09:50:34;;;;;;;0.37;0.37;;;12.60;99.90;;;;;;956272;148;27271;-79
2024/01/02 09:53:09;;;;;;;0.40;0.40;;;12.60;99.90;;;;;;950866;148;27331;-78
2024/01/02 09:55:36;;;;;;;0.40;0.40;;;12.60;99.90;;;;;;955900;148;27299;-77
2024/01/02 09:58:20;;;;;;;0.35;0.35;;;12.60;99.90;;;;;;956599;147;27302;-78
2024/01/02 10:00:50;;;;;;;0.50;0.50;;;12.60;99.90;;;;;;957803;148;27933;-80
2024/01/02 10:03:31;;;;;;;0.55;0.55;;;12.70;99.90;;;;;;953939;146;27455;-77
2024/01/02 10:06:16;;;;;;;0.40;0.40;;;12.70;99.90;;;;;;957792;148;27400;-79
2024/01/02 10:08:43;;;;;;;0.30;0.30;;;12.70;99.90;;;;;;958797;148;27304;-79
2024/01/02 10:11:37;;;;;;;0.40;0.40;;;12.70;99.90;;;;;;936067;148;27270;-79
2024/01/02 10:14:22;;;;;;;0.40;0.40;;;12.70;99.90;;;;;;957849;148;27355;-82
2024/01/02 10:16:57;;;;;;;0.63;0.50;;;12.70;99.90;;;;;;950545;148;27332;-80
2024/01/02 10:19:26;;;;;;;0.60;0.50;;;12.70;99.90;;;;;;952748;148;27422;-80
2024/01/02 10:22:17;;;;;;;0.50;0.50;;;12.70;99.90;;;;;;952137;148;27268;-86
2024/01/02 10:24:50;;;;;;;0.50;0.47;;;12.70;99.90;;;;;;956529;148;27425;-85
2024/01/02 10:27:18;;;;;;;0.75;0.57;;;12.60;99.90;;;;;;956538;148;27391;-81
2024/01/02 10:30:07;;;;;;;0.25;0.25;;;12.60;99.90;;;;;;958407;148;27323;-87
2024/01/02 10:32:36;;;;;;;0.50;0.50;;;12.60;99.90;;;;;;958237;148;27278;-77
2024/01/02 10:35:05;;;;;;;0.28;0.28;;;12.60;99.90;;;;;;956061;148;27472;-80
2024/01/02 10:37:30;;;;;;;0.40;0.40;;;12.60;99.90;;;;;;958430;147;27347;-77
2024/01/02 10:40:02;;;;;;;0.53;0.50;;;12.60;99.90;;;;;;958304;147;27335;-74
2024/01/02 10:42:29;;;;;;;0.40;0.40;;;12.60;99.90;;;;;;960634;148;27332;-78
2024/01/02 10:44:58;;;;;;;1.43;0.40;;;12.60;99.90;;;;;;955167;147;27253;-78
2024/01/02 10:47:30;;;;;;;0.47;0.47;;;12.60;99.90;;;;;;955207;148;27358;-77
2024/01/02 10:50:00;;;;;;;0.50;0.47;;;12.60;99.90;;;;;;957746;148;27284;-77
2024/01/02 10:52:29;;;;;;;0.43;0.43;;;12.60;99.90;;;;;;956823;148;27275;-78
2024/01/02 10:55:07;;;;;;;0.43;0.43;;;12.60;99.90;;;;;;956571;148;27335;-78
2024/01/02 10:57:46;;;;;;;1.85;0.75;;;12.60;99.90;;;;;;958455;147;28409;-78
2024/01/02 11:00:18;;;;;;;0.47;0.47;;;12.60;99.90;;;;;;956041;148;27323;-78
2024/01/02 11:02:42;;;;;;;0.50;0.50;;;12.60;99.90;;;;;;956891;148;27355;-78
2024/01/02 11:05:30;;;;;;;0.47;0.40;;;12.60;99.90;;;;;;956667;148;27588;-77
2024/01/02 11:07:56;;;;;;;0.40;0.40;;;12.60;99.90;;;;;;950159;147;27304;-78
2024/01/02 11:10:23;;;;;;;1.15;0.30;;;12.60;99.90;;;;;;955077;148;27417;-78
2024/01/02 11:12:52;;;;;;;0.35;0.35;;;12.70;99.90;;;;;;957050;148;27773;-78
2024/01/02 11:15:18;;;;;;;0.73;0.50;;;12.70;99.90;;;;;;956872;147;27459;-78
2024/01/02 11:17:45;;;;;;;0.62;0.62;;;12.70;99.90;;;;;;957092;148;27427;-78
2024/01/02 11:20:14;;;;;;;0.25;0.25;;;12.60;99.90;;;;;;958869;148;27752;-78
2024/01/02 11:22:44;;;;;;;0.50;0.50;;;12.60;99.90;;;;;;957468;148;27287;-80
2024/01/02 11:25:10;;;;;;;0.40;0.40;;;12.60;99.90;;;;;;955826;147;27334;-77
2024/01/02 11:27:40;;;;;;;0.43;0.43;;;12.60;99.90;;;;;;957903;148;27355;-77
2024/01/02 11:30:07;;;;;;;0.40;0.40;;;12.60;99.90;;;;;;957076;148;27377;-78
2024/01/02 11:32:39;;;;;;;0.50;0.50;;;12.50;99.90;;;;;;956845;148;27398;-81
2024/01/02 11:35:06;;;;;;;0.20;0.20;;;12.50;99.90;;;;;;956368;148;27431;-79
2024/01/02 11:37:32;;;;;;;1.03;0.40;;;12.50;99.90;;;;;;958242;148;27392;-79
2024/01/02 11:40:11;;;;;;;0.30;0.30;;;12.50;99.90;;;;;;956316;147;27339;-80
2024/01/02 11:42:43;;;;;;;0.40;0.40;;;12.50;99.90;;;;;;957144;147;27391;-81
2024/01/02 11:45:13;;;;;;;0.50;0.50;;;12.50;99.90;;;;;;956161;148;27339;-79
2024/01/02 11:47:45;;;;;;;0.50;0.50;;;12.50;99.90;;;;;;957948;148;27316;-80
2024/01/02 11:50:09;;;;;;;0.40;0.37;;;12.50;99.90;;;;;;956679;146;27383;-79
2024/01/02 11:52:35;;;;;;;1.17;0.40;;;12.50;99.90;;;;;;957711;148;27275;-81
2024/01/02 11:55:14;;;;;;;0.40;0.40;;;12.50;99.90;;;;;;956766;148;27338;-79
2024/01/02 11:57:53;;;;;;;1.85;0.47;;;12.50;99.90;;;;;;934334;148;28473;-80
2024/01/02 12:00:34;;;;;;;0.47;0.47;;;12.50;99.90;;;;;;957786;148;27323;-81
2024/01/02 12:03:12;;;;;;;1.17;0.60;;;12.50;99.90;;;;;;958709;147;27382;-80
2024/01/02 12:05:39;;;;;;;0.80;0.60;;;12.50;99.90;;;;;;965274;146;28539;-80
2024/01/02 12:08:08;;;;;;;1.57;0.47;;;12.50;99.90;;;;;;967799;146;27346;-80
2024/01/02 12:10:34;;;;;;;0.78;0.60;;;12.50;99.90;;;;;;969772;146;27304;-81
2024/01/02 12:13:11;;;;;;;0.40;0.40;;;12.50;99.90;;;;;;969464;147;28100;-79
2024/01/02 12:15:39;;;;;;;0.53;0.53;;;12.50;99.90;;;;;;968044;147;27632;-79
2024/01/02 12:18:08;;;;;;;0.87;0.77;;;12.50;99.90;;;;;;968758;146;27310;-79
2024/01/02 12:20:43;;;;;;;0.50;0.50;;;12.50;99.90;;;;;;969490;148;27325;-79
2024/01/02 12:23:10;;;;;;;0.50;0.50;;;12.50;99.90;;;;;;967337;146;27374;-80
2024/01/02 12:25:37;;;;;;;0.77;0.60;;;12.50;99.90;;;;;;970189;146;27360;-80
2024/01/02 12:28:03;;;;;;;0.93;0.63;;;12.50;99.90;;;;;;968871;146;27338;-82
2024/01/02 12:30:45;;;;;;;0.50;0.50;;;12.50;99.90;;;;;;968927;146;27326;-79
2024/01/02 12:33:35;;;;;;;1.27;0.70;;;12.50;99.90;;;;;;967922;148;27423;-80
2024/01/02 12:35:59;;;;;;;0.50;0.50;;;12.40;99.90;;;;;;968870;146;27429;-80
2024/01/02 12:38:26;;;;;;;0.93;0.40;;;12.40;99.90;;;;;;968075;146;27251;-80
2024/01/02 12:40:53;;;;;;;0.50;0.50;;;12.50;99.90;;;;;;968672;146;27794;-82
2024/01/02 12:43:20;;;;;;;0.80;0.80;;;12.40;99.90;;;;;;970001;147;27310;-85
2024/01/02 12:45:46;;;;;;;0.60;0.60;;;12.40;99.90;;;;;;969537;147;27359;-86
2024/01/02 12:48:12;;;;;;;1.43;0.60;;;12.40;99.90;;;;;;968993;147;27243;-85
2024/01/02 12:50:39;;;;;;;0.93;0.70;;;12.40;99.90;;;;;;969211;148;27333;-85